Time;durP1;ratioP1;P1;durP2;ratioP2;P2;SDS_P1;SDS_P2;PMS_P1;PMS_P2;Temp;Humidity;BMP_temperature;BMP_pressure;BME280_temperature;BME280_humidity;BME280_pressure;Samples;Min_cycle;Max_cycle;Signal;HPM_P1;HPM_P2
2023/07/31 00:01:53;;;;;;;8.15;2.85;;;;;;;-147.32;100.00;65238.50;10456352;28;20045;-67
2023/07/31 00:06:53;;;;;;;7.10;3.67;;;;;;;-147.32;100.00;65238.50;10468476;28;20040;-68
2023/07/31 00:11:54;;;;;;;6.40;2.90;;;;;;;-147.32;100.00;65238.50;10441580;28;20071;-68
2023/07/31 00:16:54;;;;;;;6.65;3.45;;;;;;;-147.32;100.00;65238.50;10469113;28;20048;-67
2023/07/31 00:21:55;;;;;;;4.93;2.90;;;;;;;-147.32;100.00;65238.50;10432487;28;20049;-67
2023/07/31 00:26:56;;;;;;;6.05;3.97;;;;;;;-147.32;100.00;65238.50;10449370;28;20041;-67
2023/07/31 00:31:57;;;;;;;5.90;3.42;;;;;;;-147.32;100.00;65238.50;10452904;28;20090;-67
2023/07/31 00:36:57;;;;;;;6.07;3.22;;;;;;;-147.32;100.00;65238.50;10417807;28;20033;-67
2023/07/31 00:41:58;;;;;;;4.68;2.88;;;;;;;-147.32;100.00;65238.50;10453068;28;20097;-66
2023/07/31 00:46:59;;;;;;;9.18;3.83;;;;;;;-147.32;100.00;65238.50;10388864;28;20037;-65
2023/07/31 00:51:59;;;;;;;6.85;3.67;;;;;;;-147.32;100.00;65238.50;10431398;28;20495;-66
2023/07/31 00:57:00;;;;;;;8.02;3.80;;;;;;;-147.32;100.00;65238.50;10396970;28;20092;-67
2023/07/31 01:02:00;;;;;;;5.57;3.28;;;;;;;-147.32;100.00;65238.50;10426545;28;20123;-66
2023/07/31 01:07:25;;;;;;;7.70;3.33;;;;;;;-147.32;100.00;65238.50;10435174;28;20063;-66
2023/07/31 01:12:26;;;;;;;4.30;2.85;;;;;;;-147.32;100.00;65238.50;10459615;28;20091;-66
2023/07/31 01:17:26;;;;;;;8.32;3.75;;;;;;;-147.32;100.00;65238.50;10440100;28;20044;-66
2023/07/31 01:22:27;;;;;;;7.00;3.60;;;;;;;-147.32;100.00;65238.50;10462328;28;20068;-66
2023/07/31 01:27:32;;;;;;;6.78;3.38;;;;;;;-147.32;100.00;65238.50;10470427;28;20048;-66
2023/07/31 01:32:32;;;;;;;6.78;3.97;;;;;;;-147.32;100.00;65238.50;10427966;28;20044;-66
2023/07/31 01:37:33;;;;;;;6.28;3.65;;;;;;;-147.32;100.00;65238.50;10459313;28;20104;-67
2023/07/31 01:42:33;;;;;;;6.10;4.05;;;;;;;-147.32;100.00;65238.50;10430846;28;20040;-67
2023/07/31 01:47:34;;;;;;;6.28;3.38;;;;;;;-147.32;100.00;65238.50;10410587;28;20453;-67
2023/07/31 01:52:34;;;;;;;5.35;3.13;;;;;;;-147.32;100.00;65238.50;10461369;28;20452;-66
2023/07/31 01:57:36;;;;;;;5.47;3.53;;;;;;;-147.32;100.00;65238.50;10447147;28;20036;-64
2023/07/31 02:02:37;;;;;;;5.25;2.85;;;;;;;-147.32;100.00;65238.50;10436247;28;20065;-67
2023/07/31 02:07:37;;;;;;;4.50;2.85;;;;;;;-147.32;100.00;65238.50;10443641;28;20059;-67
2023/07/31 02:12:39;;;;;;;5.60;3.22;;;;;;;-147.32;100.00;65238.50;10476575;28;20040;-67
2023/07/31 02:17:39;;;;;;;4.60;2.40;;;;;;;-147.32;100.00;65238.50;10432188;28;20029;-67
2023/07/31 02:22:40;;;;;;;3.63;2.28;;;;;;;-147.32;100.00;65238.50;10454861;28;20070;-68
2023/07/31 02:27:40;;;;;;;3.60;2.20;;;;;;;-147.32;100.00;65238.50;10474999;28;20045;-68
2023/07/31 02:32:41;;;;;;;3.92;2.08;;;;;;;-147.32;100.00;65238.50;10456111;28;20041;-67
2023/07/31 02:37:42;;;;;;;4.05;1.90;;;;;;;-147.32;100.00;65238.50;10457044;28;20592;-67
2023/07/31 02:42:42;;;;;;;3.03;1.70;;;;;;;-147.32;100.00;65238.50;10473408;28;20064;-67
2023/07/31 02:47:43;;;;;;;3.20;1.88;;;;;;;-147.32;100.00;65238.50;10460176;28;20032;-67
2023/07/31 02:52:43;;;;;;;3.05;1.48;;;;;;;-147.32;100.00;65238.50;10459407;28;20047;-67
2023/07/31 02:57:44;;;;;;;2.20;1.40;;;;;;;-147.32;100.00;65238.50;10469664;28;20049;-67
2023/07/31 03:02:44;;;;;;;2.30;1.20;;;;;;;-147.32;100.00;65238.50;10375812;28;20752;-68
2023/07/31 03:07:45;;;;;;;3.72;1.10;;;;;;;-147.32;100.00;65238.50;10460005;28;20120;-67
2023/07/31 03:12:48;;;;;;;1.00;0.73;;;;;;;-147.32;100.00;65238.50;10428397;28;20526;-68
2023/07/31 03:17:49;;;;;;;2.15;1.30;;;;;;;-147.32;100.00;65238.50;10429730;28;20067;-67
2023/07/31 03:22:49;;;;;;;1.70;1.00;;;;;;;-147.32;100.00;65238.50;10405136;28;20097;-68
2023/07/31 03:27:50;;;;;;;3.65;1.10;;;;;;;-147.32;100.00;65238.50;10397704;28;20433;-68
2023/07/31 03:32:51;;;;;;;2.20;1.10;;;;;;;-147.32;100.00;65238.50;10455413;28;20052;-67
2023/07/31 03:37:52;;;;;;;2.22;1.30;;;;;;;-147.32;100.00;65238.50;10436142;28;20048;-68
2023/07/31 03:42:53;;;;;;;2.65;1.42;;;;;;;-147.32;100.00;65238.50;10452577;28;20079;-68
2023/07/31 03:47:54;;;;;;;3.90;1.23;;;;;;;-147.32;100.00;65238.50;10465402;28;20041;-68
2023/07/31 03:52:56;;;;;;;2.58;1.55;;;;;;;-147.32;100.00;65238.50;10433944;28;20571;-69
2023/07/31 03:57:56;;;;;;;2.13;1.52;;;;;;;-147.32;100.00;65238.50;10404974;28;20045;-70
2023/07/31 04:02:59;;;;;;;3.17;1.30;;;;;;;-147.32;100.00;65238.50;10385142;28;20053;-71
2023/07/31 04:07:59;;;;;;;2.42;1.38;;;;;;;-147.32;100.00;65238.50;10398919;28;20033;-71
2023/07/31 04:13:00;;;;;;;2.03;1.20;;;;;;;-147.32;100.00;65238.50;10436573;28;20037;-71
2023/07/31 04:18:01;;;;;;;1.85;1.10;;;;;;;-147.32;100.00;65238.50;10407756;28;20033;-71
2023/07/31 04:23:01;;;;;;;2.17;1.05;;;;;;;-147.32;100.00;65238.50;10410119;28;20104;-72
2023/07/31 04:28:02;;;;;;;1.77;1.20;;;;;;;-147.32;100.00;65238.50;10418677;28;20037;-72
2023/07/31 04:33:02;;;;;;;2.88;1.08;;;;;;;-147.32;100.00;65238.50;10440253;28;20071;-71
2023/07/31 04:38:03;;;;;;;2.20;1.40;;;;;;;-147.32;100.00;65238.50;10435373;28;20447;-72
2023/07/31 04:43:04;;;;;;;4.25;1.92;;;;;;;-147.32;100.00;65238.50;10446445;28;20064;-72
2023/07/31 04:48:05;;;;;;;2.45;1.55;;;;;;;-147.32;100.00;65238.50;10444430;28;20051;-71
2023/07/31 04:53:05;;;;;;;3.15;1.40;;;;;;;-147.32;100.00;65238.50;10427395;28;20367;-69
2023/07/31 04:58:06;;;;;;;2.83;1.55;;;;;;;-147.32;100.00;65238.50;10460785;28;20033;-71
2023/07/31 05:03:07;;;;;;;4.15;2.33;;;;;;;-147.32;100.00;65238.50;10412644;28;20050;-72
2023/07/31 05:08:09;;;;;;;4.63;2.63;;;;;;;-147.32;100.00;65238.50;10428066;28;20051;-72
2023/07/31 05:13:10;;;;;;;2.60;1.73;;;;;;;-147.32;100.00;65238.50;10429753;28;20046;-72
2023/07/31 05:18:10;;;;;;;3.70;1.80;;;;;;;-147.32;100.00;65238.50;10469114;28;20036;-72
2023/07/31 05:23:11;;;;;;;3.92;2.00;;;;;;;-147.32;100.00;65238.50;10471523;28;20048;-73
2023/07/31 05:28:12;;;;;;;5.60;2.10;;;;;;;-147.32;100.00;65238.50;10426857;28;20308;-72
2023/07/31 05:33:12;;;;;;;3.45;2.05;;;;;;;-147.32;100.00;65238.50;10421747;28;20040;-73
2023/07/31 05:38:13;;;;;;;4.22;1.73;;;;;;;-147.32;100.00;65238.50;10425059;28;20033;-74
2023/07/31 05:43:14;;;;;;;3.83;1.40;;;;;;;-147.32;100.00;65238.50;10479055;28;20070;-73
2023/07/31 05:48:15;;;;;;;1.63;1.05;;;;;;;-147.32;100.00;65238.50;10426352;28;20086;-74
2023/07/31 05:53:16;;;;;;;4.50;1.40;;;;;;;-147.32;100.00;65238.50;10406765;28;20048;-73
2023/07/31 05:58:16;;;;;;;1.95;1.30;;;;;;;-147.32;100.00;65238.50;10418511;28;20044;-73
2023/07/31 06:03:17;;;;;;;3.47;1.65;;;;;;;-147.32;100.00;65238.50;10453263;28;20045;-75
2023/07/31 06:08:19;;;;;;;2.33;1.20;;;;;;;-147.32;100.00;65238.50;10395647;28;20124;-75
2023/07/31 06:13:19;;;;;;;4.20;1.50;;;;;;;-147.32;100.00;65238.50;10428083;28;20048;-74
2023/07/31 06:18:21;;;;;;;4.25;1.35;;;;;;;-147.32;100.00;65238.50;10392712;28;20052;-74
2023/07/31 06:23:22;;;;;;;5.45;1.33;;;;;;;-147.32;100.00;65238.50;10419906;28;20032;-74
2023/07/31 06:28:30;;;;;;;4.03;1.90;;;;;;;-147.32;100.00;65238.50;10432225;28;20030;-74
2023/07/31 06:33:30;;;;;;;6.53;2.80;;;;;;;-147.32;100.00;65238.50;10402661;28;20037;-74
2023/07/31 06:38:31;;;;;;;5.15;2.30;;;;;;;-147.32;100.00;65238.50;10427747;28;20061;-73
2023/07/31 06:43:31;;;;;;;6.10;2.78;;;;;;;-147.32;100.00;65238.50;10417024;28;20029;-73
2023/07/31 06:48:32;;;;;;;9.25;3.10;;;;;;;-147.32;100.00;65238.50;10416382;28;20073;-73
2023/07/31 06:53:33;;;;;;;9.85;3.75;;;;;;;-147.32;100.00;65238.50;10416561;28;20642;-73
2023/07/31 06:58:33;;;;;;;24.73;7.13;;;;;;;-147.32;100.00;65238.50;10428277;28;20720;-73
2023/07/31 07:03:35;;;;;;;22.40;7.68;;;;;;;-147.32;100.00;65238.50;10445855;28;20044;-73
2023/07/31 07:08:36;;;;;;;28.90;9.68;;;;;;;-147.32;100.00;65238.50;10471399;28;20049;-73
2023/07/31 07:13:36;;;;;;;29.05;8.27;;;;;;;-147.32;100.00;65238.50;10434347;28;20072;-72
2023/07/31 07:18:37;;;;;;;25.33;7.22;;;;;;;-147.32;100.00;65238.50;10445231;28;20048;-73
2023/07/31 07:23:38;;;;;;;23.30;7.40;;;;;;;-147.32;100.00;65238.50;10460781;28;20075;-72
2023/07/31 07:28:38;;;;;;;28.70;6.30;;;;;;;-147.32;100.00;65238.50;10441530;28;20048;-72
2023/07/31 07:33:39;;;;;;;21.98;6.35;;;;;;;-147.32;100.00;65238.50;10440252;28;20043;-71
2023/07/31 07:38:39;;;;;;;29.65;8.45;;;;;;;-147.32;100.00;65238.50;10437809;28;20044;-70
2023/07/31 07:43:39;;;;;;;26.90;6.90;;;;;;;-147.32;100.00;65238.50;10429034;28;20050;-71
2023/07/31 07:48:40;;;;;;;21.40;8.98;;;;;;;-147.32;100.00;65238.50;10423757;28;20476;-72
2023/07/31 07:53:40;;;;;;;23.38;8.55;;;;;;;-147.32;100.00;65238.50;10422880;28;20029;-73
2023/07/31 07:58:41;;;;;;;17.40;7.13;;;;;;;-147.32;100.00;65238.50;10418328;28;20036;-71
2023/07/31 08:03:41;;;;;;;13.23;6.50;;;;;;;-147.32;100.00;65238.50;10450007;28;20098;-71
2023/07/31 08:08:42;;;;;;;15.80;6.38;;;;;;;-147.32;100.00;65238.50;10419938;28;20066;-72
2023/07/31 08:13:42;;;;;;;12.77;6.40;;;;;;;-147.32;100.00;65238.50;10442098;28;20043;-69
2023/07/31 08:18:43;;;;;;;11.02;4.88;;;;;;;-147.32;100.00;65238.50;10451363;28;20088;-71
2023/07/31 08:23:43;;;;;;;11.90;4.38;;;;;;;-147.32;100.00;65238.50;10462676;28;20036;-72
2023/07/31 08:28:44;;;;;;;10.02;4.15;;;;;;;-147.32;100.00;65238.50;10437965;28;20037;-72
2023/07/31 08:33:44;;;;;;;11.15;4.55;;;;;;;-147.32;100.00;65238.50;10457437;28;20056;-71
2023/07/31 08:38:45;;;;;;;12.73;3.65;;;;;;;-147.32;100.00;65238.50;10429096;28;20047;-72
2023/07/31 08:43:46;;;;;;;8.48;3.55;;;;;;;-147.32;100.00;65238.50;10445380;28;20393;-73
2023/07/31 08:48:47;;;;;;;7.90;3.17;;;;;;;-147.32;100.00;65238.50;10439314;28;20071;-73
2023/07/31 08:53:48;;;;;;;6.85;2.97;;;;;;;-147.32;100.00;65238.50;10455506;28;20426;-72
2023/07/31 08:58:48;;;;;;;6.95;3.42;;;;;;;-147.32;100.00;65238.50;10441540;28;20049;-72
2023/07/31 09:03:49;;;;;;;9.10;3.10;;;;;;;-147.32;100.00;65238.50;10441850;28;20050;-71
2023/07/31 09:08:49;;;;;;;5.90;2.80;;;;;;;-147.32;100.00;65238.50;10421688;28;20036;-71
2023/07/31 09:13:49;;;;;;;4.68;2.38;;;;;;;-147.32;100.00;65238.50;10469110;28;20033;-69
2023/07/31 09:18:54;;;;;;;4.40;2.00;;;;;;;-147.32;100.00;65238.50;10417175;28;20045;-71
2023/07/31 09:23:55;;;;;;;4.18;2.25;;;;;;;-147.32;100.00;65238.50;10440975;28;20037;-71
2023/07/31 09:28:55;;;;;;;3.72;1.90;;;;;;;-147.32;100.00;65238.50;10477765;28;20052;-70
2023/07/31 09:34:00;;;;;;;4.15;2.00;;;;;;;-147.32;100.00;65238.50;10429536;28;20046;-70
2023/07/31 09:39:05;;;;;;;2.92;1.33;;;;;;;-147.32;100.00;65238.50;10459612;28;20036;-71
2023/07/31 09:44:06;;;;;;;1.50;1.20;;;;;;;-147.32;100.00;65238.50;10399589;28;20379;-69
2023/07/31 09:49:11;;;;;;;3.03;1.50;;;;;;;-147.32;100.00;65238.50;10446171;28;25121;-71
2023/07/31 09:54:13;;;;;;;1.70;1.00;;;;;;;-147.32;100.00;65238.50;10427214;28;20045;-70
2023/07/31 09:59:16;;;;;;;6.18;2.30;;;;;;;-147.32;100.00;65238.50;10415964;28;20032;-69
2023/07/31 10:04:20;;;;;;;1.50;0.80;;;;;;;-147.32;100.00;65238.50;10437199;28;20120;-70
2023/07/31 10:09:21;;;;;;;2.55;1.00;;;;;;;-147.32;100.00;65238.50;10422791;28;20041;-70
2023/07/31 10:14:23;;;;;;;1.63;0.85;;;;;;;-147.32;100.00;65238.50;10426005;28;20086;-69
2023/07/31 10:19:24;;;;;;;1.38;0.82;;;;;;;-147.32;100.00;65238.50;10430387;28;20446;-70
2023/07/31 10:24:24;;;;;;;1.58;0.70;;;;;;;-147.32;100.00;65238.50;10433109;28;20076;-69
2023/07/31 10:29:25;;;;;;;1.10;0.38;;;;;;;-147.32;100.00;65238.50;10420535;28;20044;-69
2023/07/31 10:34:25;;;;;;;0.68;0.60;;;;;;;-147.32;100.00;65238.50;10436850;28;20041;-69
2023/07/31 10:39:36;;;;;;;0.82;0.30;;;;;;;-147.32;100.00;65238.50;10424033;28;20109;-69
2023/07/31 10:44:37;;;;;;;0.95;0.50;;;;;;;-147.32;100.00;65238.50;10460248;28;20143;-70
2023/07/31 10:49:37;;;;;;;0.68;0.30;;;;;;;-147.32;100.00;65238.50;10444443;28;20037;-70
2023/07/31 10:54:38;;;;;;;1.67;0.75;;;;;;;-147.32;100.00;65238.50;10411431;28;20052;-70
2023/07/31 10:59:38;;;;;;;0.93;0.73;;;;;;;-147.32;100.00;65238.50;10429072;28;20032;-70
2023/07/31 11:04:40;;;;;;;0.73;0.70;;;;;;;-147.32;100.00;65238.50;10450432;28;20128;-70
2023/07/31 11:09:40;;;;;;;0.70;0.50;;;;;;;-147.32;100.00;65238.50;10441977;28;20055;-70
2023/07/31 11:14:41;;;;;;;0.60;0.50;;;;;;;-147.32;100.00;65238.50;10432442;28;20090;-70
2023/07/31 11:19:42;;;;;;;0.90;0.65;;;;;;;-147.32;100.00;65238.50;10454150;28;20044;-71
2023/07/31 11:24:42;;;;;;;1.00;0.50;;;;;;;-147.32;100.00;65238.50;10477250;28;20043;-71
2023/07/31 11:29:43;;;;;;;0.90;0.70;;;;;;;-147.32;100.00;65238.50;10406095;28;20047;-71
2023/07/31 11:34:53;;;;;;;1.15;0.80;;;;;;;-147.32;100.00;65238.50;10407215;28;20060;-73
2023/07/31 11:40:00;;;;;;;2.97;0.65;;;;;;;-147.32;100.00;65238.50;10447071;28;20113;-74
2023/07/31 11:45:05;;;;;;;1.50;1.00;;;;;;;-147.32;100.00;65238.50;10409487;28;20044;-75
2023/07/31 11:50:07;;;;;;;3.20;0.90;;;;;;;-147.32;100.00;65238.50;10430077;28;20040;-76
2023/07/31 11:55:09;;;;;;;0.75;0.25;;;;;;;-147.32;100.00;65238.50;10409630;28;20646;-77
2023/07/31 12:00:11;;;;;;;1.55;0.10;;;;;;;-147.32;100.00;65238.50;10386598;28;20045;-78
2023/07/31 12:05:12;;;;;;;0.20;0.10;;;;;;;-147.32;100.00;65238.50;10402583;28;20040;-78
2023/07/31 12:10:23;;;;;;;2.05;0.30;;;;;;;-147.32;100.00;65238.50;10423074;28;20097;-79
2023/07/31 12:15:34;;;;;;;1.67;0.20;;;;;;;-147.32;100.00;65238.50;10427693;28;20101;-80
2023/07/31 12:20:34;;;;;;;2.47;0.30;;;;;;;-147.32;100.00;65238.50;10420371;28;20439;-79
2023/07/31 12:25:36;;;;;;;2.22;0.40;;;;;;;-147.32;100.00;65238.50;10416329;28;20040;-76
2023/07/31 12:30:36;;;;;;;4.80;0.80;;;;;;;-147.32;100.00;65238.50;10422633;28;20033;-75
2023/07/31 12:35:37;;;;;;;4.43;0.50;;;;;;;-147.32;100.00;65238.50;10427601;28;20032;-75
2023/07/31 12:40:39;;;;;;;0.85;0.25;;;;;;;-147.32;100.00;65238.50;10437994;28;20051;-75
2023/07/31 12:45:39;;;;;;;3.08;0.73;;;;;;;-147.32;100.00;65238.50;10413642;28;20042;-75
2023/07/31 12:50:39;;;;;;;3.60;0.82;;;;;;;-147.32;100.00;65238.50;10414016;28;20033;-74
2023/07/31 12:55:40;;;;;;;4.25;0.70;;;;;;;-147.32;100.00;65238.50;10392444;28;20033;-76
2023/07/31 13:00:40;;;;;;;2.92;1.35;;;;;;;-147.32;100.00;65238.50;10417305;28;20068;-77
2023/07/31 13:05:41;;;;;;;0.98;0.57;;;;;;;-147.32;100.00;65238.50;10429335;28;20048;-76
2023/07/31 13:10:42;;;;;;;3.50;0.90;;;;;;;-147.32;100.00;65238.50;10427155;28;20080;-77
2023/07/31 13:15:43;;;;;;;0.77;0.57;;;;;;;-147.32;100.00;65238.50;10455126;28;20064;-80
2023/07/31 13:20:44;;;;;;;1.60;0.65;;;;;;;-147.32;100.00;65238.50;10421663;28;20091;-76
2023/07/31 13:25:44;;;;;;;2.35;1.35;;;;;;;-147.32;100.00;65238.50;10418407;28;20056;-77
2023/07/31 13:30:46;;;;;;;2.03;0.93;;;;;;;-147.32;100.00;65238.50;10415878;28;20038;-78
2023/07/31 13:35:46;;;;;;;3.20;1.33;;;;;;;-147.32;100.00;65238.50;10426802;28;20040;-74
2023/07/31 13:40:47;;;;;;;8.32;3.05;;;;;;;-147.32;100.00;65238.50;10444548;28;20504;-78
2023/07/31 13:45:47;;;;;;;5.00;1.90;;;;;;;-147.32;100.00;65238.50;10408771;28;20061;-77
2023/07/31 13:50:48;;;;;;;3.60;1.40;;;;;;;-147.32;100.00;65238.50;10416037;28;20949;-76
2023/07/31 13:55:49;;;;;;;3.78;1.50;;;;;;;-147.32;100.00;65238.50;10452117;28;20055;-76
2023/07/31 14:00:49;;;;;;;2.97;2.00;;;;;;;-147.32;100.00;65238.50;10411527;28;20037;-74
2023/07/31 14:05:51;;;;;;;4.10;1.30;;;;;;;-147.32;100.00;65238.50;10439664;28;20052;-74
2023/07/31 14:10:52;;;;;;;3.60;1.45;;;;;;;-147.32;100.00;65238.50;10429616;28;20048;-75
2023/07/31 14:15:54;;;;;;;2.42;1.45;;;;;;;-147.32;100.00;65238.50;10417118;28;20505;-74
2023/07/31 14:20:55;;;;;;;5.93;1.83;;;;;;;-147.32;100.00;65238.50;10460283;28;20064;-73
2023/07/31 14:25:56;;;;;;;3.88;2.03;;;;;;;-147.32;100.00;65238.50;10449504;28;20045;-73
2023/07/31 14:30:56;;;;;;;6.38;2.53;;;;;;;-147.32;100.00;65238.50;10394424;28;20571;-74
2023/07/31 14:35:57;;;;;;;3.08;1.90;;;;;;;-147.32;100.00;65238.50;10433312;28;20033;-73
2023/07/31 14:40:57;;;;;;;3.97;1.60;;;;;;;-147.32;100.00;65238.50;10467357;28;20041;-72
2023/07/31 14:45:59;;;;;;;5.50;2.15;;;;;;;-147.32;100.00;65238.50;10440063;28;20079;-74
2023/07/31 14:51:00;;;;;;;7.18;1.88;;;;;;;-147.32;100.00;65238.50;10408552;28;20071;-72
2023/07/31 14:56:00;;;;;;;4.82;1.88;;;;;;;-147.32;100.00;65238.50;10450502;28;20063;-73
2023/07/31 15:01:01;;;;;;;6.47;2.58;;;;;;;-147.32;100.00;65238.50;10450734;28;20047;-73
2023/07/31 15:06:01;;;;;;;4.75;2.58;;;;;;;-147.32;100.00;65238.50;10439704;28;20059;-73
2023/07/31 15:11:02;;;;;;;5.43;1.90;;;;;;;-147.32;100.00;65238.50;10446585;28;20049;-73
2023/07/31 15:16:02;;;;;;;7.93;2.65;;;;;;;-147.32;100.00;65238.50;10403247;28;20051;-72
2023/07/31 15:21:04;;;;;;;8.80;2.88;;;;;;;-147.32;100.00;65238.50;10448195;28;20041;-72
2023/07/31 15:26:04;;;;;;;5.78;2.45;;;;;;;-147.32;100.00;65238.50;10429690;28;20029;-73
2023/07/31 15:31:05;;;;;;;9.93;2.55;;;;;;;-147.32;100.00;65238.50;10440403;28;20048;-73
2023/07/31 15:36:06;;;;;;;5.03;2.13;;;;;;;-147.32;100.00;65238.50;10398954;28;20037;-73
2023/07/31 15:41:06;;;;;;;6.78;2.28;;;;;;;-147.32;100.00;65238.50;10459512;28;20087;-72
2023/07/31 15:46:06;;;;;;;7.88;2.83;;;;;;;-147.32;100.00;65238.50;10446386;28;20045;-72
2023/07/31 15:51:07;;;;;;;5.38;2.17;;;;;;;-147.32;100.00;65238.50;10448485;28;20041;-72
2023/07/31 15:56:08;;;;;;;5.68;2.20;;;;;;;-147.32;100.00;65238.50;10470408;28;20047;-73
2023/07/31 16:01:08;;;;;;;5.75;2.50;;;;;;;-147.32;100.00;65238.50;10437318;28;20043;-73
2023/07/31 16:06:09;;;;;;;7.70;2.45;;;;;;;-147.32;100.00;65238.50;10452857;28;20176;-72
2023/07/31 16:11:09;;;;;;;5.88;2.38;;;;;;;-147.32;100.00;65238.50;10445153;28;20044;-72
2023/07/31 16:16:10;;;;;;;7.25;2.70;;;;;;;-147.32;100.00;65238.50;10447434;28;20032;-73
2023/07/31 16:21:10;;;;;;;7.25;2.25;;;;;;;-147.32;100.00;65238.50;10454551;28;20044;-72
2023/07/31 16:26:10;;;;;;;8.85;2.22;;;;;;;-147.32;100.00;65238.50;10426221;28;20048;-71
2023/07/31 16:31:11;;;;;;;5.93;2.00;;;;;;;-147.32;100.00;65238.50;10472229;28;20049;-72
2023/07/31 16:36:11;;;;;;;10.43;2.47;;;;;;;-147.32;100.00;65238.50;10429249;28;20069;-72
2023/07/31 16:41:12;;;;;;;6.38;1.80;;;;;;;-147.32;100.00;65238.50;10471556;28;20048;-73
2023/07/31 16:46:12;;;;;;;5.28;1.70;;;;;;;-147.32;100.00;65238.50;10484139;28;20401;-70
2023/07/31 16:51:13;;;;;;;4.28;2.45;;;;;;;-147.32;100.00;65238.50;10460160;28;20048;-71
2023/07/31 16:56:15;;;;;;;7.63;3.30;;;;;;;-147.32;100.00;65238.50;10450861;28;20044;-70
2023/07/31 17:01:15;;;;;;;6.82;2.70;;;;;;;-147.32;100.00;65238.50;10418704;28;20519;-71
2023/07/31 17:06:16;;;;;;;5.85;2.03;;;;;;;-147.32;100.00;65238.50;10438676;28;20048;-70
2023/07/31 17:11:16;;;;;;;4.10;2.33;;;;;;;-147.32;100.00;65238.50;10434053;28;20032;-70
2023/07/31 17:16:19;;;;;;;4.85;2.17;;;;;;;-147.32;100.00;65238.50;10433524;28;20100;-70
2023/07/31 17:21:22;;;;;;;5.07;2.42;;;;;;;-147.32;100.00;65238.50;10443556;28;20036;-71
2023/07/31 17:26:22;;;;;;;3.78;2.08;;;;;;;-147.32;100.00;65238.50;10401530;28;20047;-70
2023/07/31 17:31:23;;;;;;;4.80;2.65;;;;;;;-147.32;100.00;65238.50;10420740;28;20408;-70
2023/07/31 17:36:24;;;;;;;3.85;2.72;;;;;;;-147.32;100.00;65238.50;10445863;28;21664;-70
2023/07/31 17:41:27;;;;;;;7.22;3.55;;;;;;;-147.32;100.00;65238.50;10414115;28;20109;-69
2023/07/31 17:46:27;;;;;;;8.73;3.28;;;;;;;-147.32;100.00;65238.50;10433902;28;20092;-70
2023/07/31 17:51:28;;;;;;;4.68;3.40;;;;;;;-147.32;100.00;65238.50;10458377;28;20033;-70
2023/07/31 17:56:29;;;;;;;5.53;3.53;;;;;;;-147.32;100.00;65238.50;10424646;28;20033;-69
2023/07/31 18:01:30;;;;;;;7.40;3.78;;;;;;;-147.32;100.00;65238.50;10455782;28;20100;-70
2023/07/31 18:06:34;;;;;;;7.20;4.13;;;;;;;-147.32;100.00;65238.50;10398406;28;20040;-69
2023/07/31 18:11:34;;;;;;;6.50;4.78;;;;;;;-147.32;100.00;65238.50;10439566;28;20265;-69
2023/07/31 18:16:36;;;;;;;8.65;5.03;;;;;;;-147.32;100.00;65238.50;10431368;28;20067;-70
2023/07/31 18:21:37;;;;;;;5.85;4.43;;;;;;;-147.32;100.00;65238.50;10459363;28;20047;-70
2023/07/31 18:26:37;;;;;;;9.23;5.43;;;;;;;-147.32;100.00;65238.50;10446015;28;20060;-70
2023/07/31 18:31:38;;;;;;;7.25;5.13;;;;;;;-147.32;100.00;65238.50;10451657;28;20540;-70
2023/07/31 18:36:40;;;;;;;8.20;4.95;;;;;;;-147.32;100.00;65238.50;10413223;28;20056;-70
2023/07/31 18:41:40;;;;;;;7.90;5.43;;;;;;;-147.32;100.00;65238.50;10459032;28;20064;-70
2023/07/31 18:46:41;;;;;;;7.47;5.47;;;;;;;-147.32;100.00;65238.50;10477408;28;20041;-71
2023/07/31 18:51:42;;;;;;;6.80;4.88;;;;;;;-147.32;100.00;65238.50;10409484;28;20037;-71
2023/07/31 18:56:42;;;;;;;7.40;4.35;;;;;;;-147.32;100.00;65238.50;10408334;28;20039;-70
2023/07/31 19:01:44;;;;;;;7.15;4.07;;;;;;;-147.32;100.00;65238.50;10460486;28;20075;-71
2023/07/31 19:06:46;;;;;;;9.07;4.00;;;;;;;-147.32;100.00;65238.50;10423863;28;20033;-71
2023/07/31 19:11:47;;;;;;;7.07;4.10;;;;;;;-147.32;100.00;65238.50;10436803;28;20056;-72
2023/07/31 19:16:47;;;;;;;6.68;4.00;;;;;;;-147.32;100.00;65238.50;10476687;28;20149;-72
2023/07/31 19:21:48;;;;;;;9.27;4.90;;;;;;;-147.32;100.00;65238.50;10456106;28;20093;-71
2023/07/31 19:26:48;;;;;;;8.60;3.90;;;;;;;-147.32;100.00;65238.50;10435928;28;20033;-72
2023/07/31 19:31:49;;;;;;;8.90;3.97;;;;;;;-147.32;100.00;65238.50;10427722;28;20048;-72
2023/07/31 19:36:49;;;;;;;8.82;4.63;;;;;;;-147.32;100.00;65238.50;10446500;28;20048;-72
2023/07/31 19:41:51;;;;;;;3.85;2.25;;;;;;;-147.32;100.00;65238.50;10456571;28;20455;-72
2023/07/31 19:46:51;;;;;;;4.53;2.15;;;;;;;-147.32;100.00;65238.50;10475032;28;20052;-71
2023/07/31 19:51:52;;;;;;;2.35;1.52;;;;;;;-147.32;100.00;65238.50;10430304;28;20126;-72
2023/07/31 19:56:54;;;;;;;4.22;1.70;;;;;;;-147.32;100.00;65238.50;10425240;28;20068;-71
2023/07/31 20:01:54;;;;;;;3.13;1.75;;;;;;;-147.32;100.00;65238.50;10409047;28;20131;-72
2023/07/31 20:06:55;;;;;;;2.83;1.60;;;;;;;-147.32;100.00;65238.50;10423316;28;20071;-72
2023/07/31 20:11:55;;;;;;;5.32;2.10;;;;;;;-147.32;100.00;65238.50;10427648;28;20449;-74
2023/07/31 20:16:56;;;;;;;1.98;1.40;;;;;;;-147.32;100.00;65238.50;10383068;28;20041;-76
2023/07/31 20:21:58;;;;;;;2.70;1.77;;;;;;;-147.32;100.00;65238.50;10423288;28;20049;-75
2023/07/31 20:26:59;;;;;;;3.67;2.78;;;;;;;-147.32;100.00;65238.50;10418860;28;20524;-77
2023/07/31 20:31:59;;;;;;;3.40;2.60;;;;;;;-147.32;100.00;65238.50;10401601;28;20128;-76
2023/07/31 20:37:00;;;;;;;4.60;3.20;;;;;;;-147.32;100.00;65238.50;10431122;28;20033;-76
2023/07/31 20:42:01;;;;;;;7.90;3.40;;;;;;;-147.32;100.00;65238.50;10446367;28;20033;-74
2023/07/31 20:47:01;;;;;;;7.95;4.75;;;;;;;-147.32;100.00;65238.50;10441803;28;20048;-76
2023/07/31 20:52:02;;;;;;;8.85;5.43;;;;;;;-147.32;100.00;65238.50;10435584;28;20082;-74
2023/07/31 20:57:04;;;;;;;6.75;4.25;;;;;;;-147.32;100.00;65238.50;10408172;28;20037;-75
2023/07/31 21:02:05;;;;;;;6.53;4.53;;;;;;;-147.32;100.00;65238.50;10422317;28;20441;-76
2023/07/31 21:07:08;;;;;;;9.05;4.25;;;;;;;-147.32;100.00;65238.50;10438885;28;20045;-76
2023/07/31 21:12:09;;;;;;;7.05;4.70;;;;;;;-147.32;100.00;65238.50;10469843;28;20096;-76
2023/07/31 21:17:10;;;;;;;5.88;4.15;;;;;;;-147.32;100.00;65238.50;10389336;28;20048;-76
2023/07/31 21:22:11;;;;;;;7.93;4.38;;;;;;;-147.32;100.00;65238.50;10432454;28;20037;-75
2023/07/31 21:27:11;;;;;;;7.00;4.82;;;;;;;-147.32;100.00;65238.50;10440469;28;20058;-76
2023/07/31 21:32:12;;;;;;;6.32;4.28;;;;;;;-147.32;100.00;65238.50;10414828;28;20037;-76
2023/07/31 21:37:12;;;;;;;8.93;5.20;;;;;;;-147.32;100.00;65238.50;10440335;28;20056;-75
2023/07/31 21:42:13;;;;;;;7.95;5.45;;;;;;;-147.32;100.00;65238.50;10414745;28;20040;-76
2023/07/31 21:47:13;;;;;;;12.00;5.35;;;;;;;-147.32;100.00;65238.50;10423847;28;20029;-77
2023/07/31 21:52:14;;;;;;;8.45;4.68;;;;;;;-147.32;100.00;65238.50;10471674;28;20543;-77
2023/07/31 21:57:14;;;;;;;10.80;4.57;;;;;;;-147.32;100.00;65238.50;10426815;28;20048;-76
2023/07/31 22:02:15;;;;;;;9.52;4.13;;;;;;;-147.32;100.00;65238.50;10474432;28;20089;-74
2023/07/31 22:07:17;;;;;;;12.80;4.20;;;;;;;-147.32;100.00;65238.50;10422459;28;20064;-75
2023/07/31 22:12:17;;;;;;;8.45;4.32;;;;;;;-147.32;100.00;65238.50;10445951;28;20095;-73
2023/07/31 22:17:18;;;;;;;8.68;4.03;;;;;;;-147.32;100.00;65238.50;10463180;28;20140;-76
2023/07/31 22:22:19;;;;;;;8.60;4.65;;;;;;;-147.32;100.00;65238.50;10459630;28;20110;-76
2023/07/31 22:27:19;;;;;;;7.93;3.80;;;;;;;-147.32;100.00;65238.50;10443354;28;20033;-76
2023/07/31 22:32:20;;;;;;;9.57;4.00;;;;;;;-147.32;100.00;65238.50;10444423;28;20094;-77